createdAt,value
2022-12-28T00:01:11.842Z,8.97
2022-12-28T00:03:38.950Z,8.99
2022-12-28T00:06:07.486Z,8.90
2022-12-28T00:08:34.464Z,9.01
2022-12-28T00:11:07.864Z,9.05
2022-12-28T00:13:36.479Z,9.04
2022-12-28T00:16:12.098Z,8.96
2022-12-28T00:18:39.049Z,8.92
2022-12-28T00:21:06.230Z,8.75
2022-12-28T00:23:33.194Z,8.71
2022-12-28T00:26:11.837Z,8.69
2022-12-28T00:28:39.402Z,8.61
2022-12-28T00:31:07.085Z,8.53
2022-12-28T00:33:34.158Z,8.49
2022-12-28T00:36:02.300Z,8.28
2022-12-28T00:38:33.483Z,8.21
2022-12-28T00:41:03.028Z,8.11
2022-12-28T00:43:30.321Z,7.92
2022-12-28T00:45:59.592Z,7.82
2022-12-28T00:48:26.512Z,7.68
2022-12-28T00:50:53.583Z,7.63
2022-12-28T00:53:20.686Z,7.44
2022-12-28T00:55:50.946Z,7.33
2022-12-28T00:58:17.875Z,7.23
2022-12-28T01:00:44.741Z,7.21
2022-12-28T01:03:11.589Z,7.18
2022-12-28T01:05:40.014Z,6.96
2022-12-28T01:08:08.494Z,7.00
2022-12-28T01:10:35.409Z,6.87
2022-12-28T01:13:02.237Z,6.79
2022-12-28T01:15:29.165Z,6.65
2022-12-28T01:17:56.117Z,6.62
2022-12-28T01:20:23.012Z,6.53
2022-12-28T01:22:49.933Z,6.38
2022-12-28T01:25:17.009Z,6.36
2022-12-28T01:27:43.978Z,6.34
2022-12-28T01:30:13.780Z,6.41
2022-12-28T01:32:40.813Z,6.40
2022-12-28T01:35:08.277Z,6.45
2022-12-28T01:37:35.941Z,6.52
2022-12-28T01:40:02.858Z,6.55
2022-12-28T01:42:29.666Z,6.65
2022-12-28T01:44:56.520Z,6.58
2022-12-28T01:47:31.781Z,6.54
2022-12-28T01:50:03.384Z,6.51
2022-12-28T01:52:32.790Z,6.47
2022-12-28T01:55:14.160Z,6.49
2022-12-28T01:57:51.427Z,6.36
2022-12-28T02:00:18.553Z,6.37
2022-12-28T02:02:52.578Z,6.38
2022-12-28T02:05:20.464Z,6.37
2022-12-28T02:07:57.610Z,6.36
2022-12-28T02:10:41.233Z,6.31
2022-12-28T02:13:12.744Z,6.18
2022-12-28T02:15:39.638Z,6.20
2022-12-28T02:18:06.741Z,6.23
2022-12-28T02:21:15.043Z,6.06
2022-12-28T02:24:09.158Z,5.98
2022-12-28T02:27:14.775Z,5.97
2022-12-28T02:29:53.454Z,6.03
2022-12-28T02:32:57.840Z,5.86
2022-12-28T02:35:25.730Z,5.79
2022-12-28T02:38:05.840Z,5.66
2022-12-28T02:40:42.558Z,5.59
2022-12-28T02:43:09.845Z,5.49
2022-12-28T02:46:01.552Z,5.52
2022-12-28T02:48:47.330Z,5.67
2022-12-28T02:51:55.625Z,5.66
2022-12-28T02:54:42.708Z,5.56
2022-12-28T02:57:42.733Z,5.68
2022-12-28T03:00:15.657Z,5.54
2022-12-28T03:03:01.317Z,5.57
2022-12-28T03:06:34.106Z,5.46
2022-12-28T03:09:36.879Z,5.34
2022-12-28T03:26:42.840Z,4.79
2022-12-28T03:29:33.315Z,4.94
2022-12-28T03:32:01.211Z,5.10
2022-12-28T03:34:28.397Z,5.24
2022-12-28T03:37:07.269Z,5.27
2022-12-28T03:39:38.876Z,5.21
2022-12-28T03:42:40.479Z,5.19
2022-12-28T03:45:45.297Z,5.10
2022-12-28T03:48:18.556Z,4.98
2022-12-28T03:50:48.640Z,4.88
2022-12-28T03:53:20.311Z,4.81
2022-12-28T03:55:49.427Z,4.80
2022-12-28T03:58:21.347Z,4.76
2022-12-28T04:00:49.486Z,4.75
2022-12-28T04:03:23.899Z,4.72
2022-12-28T04:05:50.975Z,4.73
2022-12-28T04:08:17.818Z,4.67
2022-12-28T04:10:44.732Z,4.62
2022-12-28T04:13:11.627Z,4.55
2022-12-28T04:15:58.841Z,4.41
2022-12-28T04:18:26.861Z,4.37
2022-12-28T04:20:55.298Z,4.45
2022-12-28T04:23:22.505Z,4.40
2022-12-28T04:26:11.768Z,4.47
2022-12-28T04:28:40.389Z,4.48
2022-12-28T04:31:26.047Z,4.34
2022-12-28T04:34:04.159Z,4.43
2022-12-28T04:36:34.612Z,4.42
2022-12-28T04:39:02.930Z,4.47
2022-12-28T04:41:32.558Z,4.50
2022-12-28T04:43:59.530Z,4.38
2022-12-28T04:46:26.556Z,4.31
2022-12-28T04:48:53.634Z,4.27
2022-12-28T04:51:24.214Z,4.23
2022-12-28T04:53:51.850Z,4.27
2022-12-28T04:56:20.287Z,4.30
2022-12-28T04:58:51.857Z,4.28
2022-12-28T05:01:19.963Z,4.37
2022-12-28T05:03:55.096Z,4.45
2022-12-28T05:06:25.509Z,4.44
2022-12-28T05:08:52.420Z,4.34
2022-12-28T05:11:21.766Z,4.45
2022-12-28T05:13:49.499Z,4.43
2022-12-28T05:16:21.828Z,4.52
2022-12-28T05:18:48.933Z,4.53
2022-12-28T05:21:19.251Z,4.54
2022-12-28T05:23:46.707Z,4.60
2022-12-28T05:26:16.358Z,4.65
2022-12-28T05:28:43.473Z,4.68
2022-12-28T05:31:13.786Z,4.78
2022-12-28T05:33:41.621Z,4.81
2022-12-28T05:36:11.665Z,4.95
2022-12-28T05:38:39.075Z,4.95
2022-12-28T05:41:26.239Z,5.02
2022-12-28T05:43:54.123Z,4.91
2022-12-28T05:46:26.815Z,4.98
2022-12-28T05:48:55.426Z,4.95
2022-12-28T05:51:24.916Z,5.24
2022-12-28T05:53:51.879Z,5.38
2022-12-28T05:56:23.829Z,5.90
2022-12-28T05:59:05.698Z,6.63
2022-12-28T06:01:35.275Z,7.03
2022-12-28T06:04:04.793Z,7.21
2022-12-28T06:06:33.559Z,7.09
2022-12-28T06:09:01.961Z,7.00
2022-12-28T06:11:30.069Z,6.79
2022-12-28T06:13:59.052Z,6.65
2022-12-28T06:16:31.650Z,6.62
2022-12-28T06:18:58.897Z,6.46
2022-12-28T06:21:30.939Z,6.33
2022-12-28T06:23:59.821Z,6.33
2022-12-28T06:26:29.621Z,6.40
2022-12-28T06:28:57.207Z,6.27
2022-12-28T06:31:29.767Z,6.30
2022-12-28T06:33:58.991Z,6.41
2022-12-28T06:36:30.759Z,6.40
2022-12-28T06:38:59.849Z,6.52
2022-12-28T06:41:28.154Z,6.52
2022-12-28T06:43:55.962Z,6.57
2022-12-28T06:46:25.173Z,6.43
2022-12-28T06:48:52.337Z,6.58
2022-12-28T06:51:25.157Z,6.81
2022-12-28T06:53:53.540Z,6.77
2022-12-28T06:56:26.458Z,6.81
2022-12-28T06:59:00.331Z,6.81
2022-12-28T07:01:40.941Z,7.22
2022-12-28T07:04:09.722Z,7.47
2022-12-28T07:06:39.701Z,7.39
2022-12-28T07:09:10.181Z,7.40
2022-12-28T07:11:37.594Z,7.44
2022-12-28T07:14:04.704Z,7.47
2022-12-28T07:18:59.355Z,7.90
2022-12-28T07:21:31.533Z,8.10
2022-12-28T07:23:59.499Z,8.15
2022-12-28T07:26:29.359Z,8.04
2022-12-28T07:28:58.252Z,7.81
2022-12-28T07:31:28.359Z,8.13
2022-12-28T07:33:56.775Z,8.41
2022-12-28T07:36:25.279Z,8.33
2022-12-28T07:38:52.388Z,8.16
2022-12-28T07:41:22.418Z,8.71
2022-12-28T07:43:50.032Z,9.08
2022-12-28T07:46:22.541Z,9.16
2022-12-28T07:48:50.277Z,8.58
2022-12-28T07:51:21.883Z,8.67
2022-12-28T07:53:50.153Z,9.13
2022-12-28T07:56:18.235Z,10.49
2022-12-28T07:58:52.253Z,12.07
2022-12-28T08:01:23.565Z,12.68
2022-12-28T08:03:55.224Z,12.30
2022-12-28T08:06:23.558Z,11.57
2022-12-28T08:08:56.369Z,11.24
2022-12-28T08:11:25.987Z,11.14
2022-12-28T08:13:55.255Z,11.73
2022-12-28T08:16:24.612Z,12.86
2022-12-28T08:18:51.426Z,14.02
2022-12-28T08:21:25.056Z,14.22
2022-12-28T08:23:52.267Z,16.48
2022-12-28T08:26:22.549Z,17.30
2022-12-28T08:28:51.675Z,16.86
2022-12-28T08:31:24.389Z,15.25
2022-12-28T08:33:53.616Z,14.99
2022-12-28T08:36:20.946Z,15.48
2022-12-28T08:38:48.261Z,15.70
2022-12-28T08:41:17.825Z,15.58
2022-12-28T08:43:45.863Z,15.37
2022-12-28T08:46:18.826Z,15.94
2022-12-28T08:48:48.089Z,15.23
2022-12-28T08:51:27.035Z,15.31
2022-12-28T08:53:54.232Z,15.40
2022-12-28T08:56:27.828Z,14.85
2022-12-28T08:58:55.878Z,14.53
2022-12-28T09:01:27.799Z,16.13
2022-12-28T09:03:57.473Z,15.55
2022-12-28T09:06:37.207Z,14.26
2022-12-28T09:09:07.418Z,13.62
2022-12-28T09:11:38.554Z,14.54
2022-12-28T09:14:12.031Z,17.83
2022-12-28T09:16:42.593Z,19.81
2022-12-28T09:19:13.809Z,18.86
2022-12-28T09:21:41.777Z,17.34
2022-12-28T09:24:08.735Z,16.05
2022-12-28T09:26:37.808Z,15.25
2022-12-28T09:29:08.806Z,14.27
2022-12-28T09:31:37.437Z,13.36
2022-12-28T09:36:53.157Z,12.45
2022-12-28T09:39:24.699Z,11.82
2022-12-28T09:41:55.146Z,11.43
2022-12-28T09:44:40.471Z,12.20
2022-12-28T09:47:13.236Z,12.46
2022-12-28T09:50:17.405Z,12.61
2022-12-28T09:53:08.578Z,11.58
2022-12-28T09:55:38.424Z,11.98
2022-12-28T09:58:11.324Z,12.28
2022-12-28T10:00:48.042Z,12.09
2022-12-28T10:03:19.942Z,11.59
2022-12-28T10:05:47.990Z,11.80
2022-12-28T10:08:19.159Z,11.52
2022-12-28T10:10:49.035Z,10.95
2022-12-28T10:16:16.542Z,16.10
2022-12-28T10:18:43.560Z,15.83
2022-12-28T10:21:11.593Z,14.73
2022-12-28T10:23:56.840Z,15.92
2022-12-28T10:26:26.991Z,15.00
2022-12-28T10:28:58.401Z,14.10
2022-12-28T10:31:37.780Z,12.61
2022-12-28T10:34:24.526Z,12.45
2022-12-28T10:36:54.469Z,14.25
2022-12-28T10:39:29.869Z,18.13
2022-12-28T10:42:00.780Z,18.97
2022-12-28T10:47:28.555Z,15.36
2022-12-28T10:50:26.929Z,14.93
2022-12-28T10:52:42.194Z,13.78
2022-12-28T10:55:30.348Z,13.62
2022-12-28T10:58:32.903Z,14.65
2022-12-28T11:01:25.997Z,17.00
2022-12-28T11:03:21.192Z,17.66
2022-12-28T11:03:55.922Z,17.61
2022-12-28T11:06:31.440Z,17.38
2022-12-28T11:09:16.557Z,15.50
2022-12-28T11:11:46.175Z,13.19
2022-12-28T11:14:36.346Z,13.46
2022-12-28T11:17:27.749Z,13.36
2022-12-28T11:20:08.795Z,14.95
2022-12-28T11:22:35.760Z,15.56
2022-12-28T11:25:03.114Z,15.98
2022-12-28T11:27:30.134Z,16.36
2022-12-28T11:29:57.980Z,15.40
2022-12-28T11:32:30.037Z,16.00
2022-12-28T11:34:58.110Z,16.28
2022-12-28T11:37:25.212Z,17.38
2022-12-28T11:39:53.219Z,16.99
2022-12-28T11:42:40.679Z,16.87
2022-12-28T11:45:16.523Z,17.09
2022-12-28T11:47:43.505Z,18.24
2022-12-28T11:50:36.707Z,18.41
2022-12-28T11:53:19.403Z,18.41
2022-12-28T11:56:01.437Z,19.46
2022-12-28T11:58:31.329Z,19.44
2022-12-28T12:01:00.208Z,18.92
2022-12-28T12:03:58.475Z,16.90
2022-12-28T12:06:43.833Z,17.49
2022-12-28T12:09:26.448Z,17.25
2022-12-28T12:12:22.795Z,17.52
2022-12-28T12:14:57.587Z,17.37
2022-12-28T12:17:42.752Z,16.46
2022-12-28T12:20:49.033Z,16.24
2022-12-28T12:23:43.574Z,16.26
2022-12-28T12:26:28.160Z,16.22
2022-12-28T12:29:07.883Z,15.77
2022-12-28T12:31:41.514Z,16.36
2022-12-28T12:34:24.640Z,16.41
2022-12-28T12:37:06.672Z,15.36
2022-12-28T12:39:42.541Z,12.53
2022-12-28T12:42:44.412Z,11.16
2022-12-28T12:45:21.958Z,9.90
2022-12-28T12:47:48.943Z,9.38
2022-12-28T12:50:33.412Z,8.90
2022-12-28T12:53:18.814Z,8.57
2022-12-28T12:56:07.773Z,8.11
2022-12-28T12:58:57.562Z,7.82
2022-12-28T13:01:30.122Z,7.61
2022-12-28T13:04:06.700Z,7.59
2022-12-28T13:06:36.850Z,7.47
2022-12-28T13:09:06.572Z,7.37
2022-12-28T13:11:38.341Z,7.22
2022-12-28T13:14:06.786Z,7.24
2022-12-28T13:16:33.870Z,7.29
2022-12-28T13:19:07.278Z,7.31
2022-12-28T13:21:46.248Z,7.27
2022-12-28T13:24:22.146Z,7.14
2022-12-28T13:26:50.830Z,7.15
2022-12-28T13:29:21.236Z,7.13
2022-12-28T13:31:50.010Z,7.02
2022-12-28T13:34:16.771Z,6.94
2022-12-28T13:36:50.707Z,6.92
2022-12-28T13:39:19.623Z,6.95
2022-12-28T13:42:02.574Z,7.02
2022-12-28T13:44:38.168Z,7.02
2022-12-28T13:47:14.060Z,6.91
2022-12-28T13:49:56.061Z,6.81
2022-12-28T13:52:46.679Z,6.83
2022-12-28T13:55:18.451Z,6.76
2022-12-28T13:57:57.408Z,6.75
2022-12-28T14:00:27.777Z,6.67
2022-12-28T14:02:56.940Z,6.61
2022-12-28T14:05:29.948Z,6.68
2022-12-28T14:07:59.028Z,6.64
2022-12-28T14:10:27.329Z,6.57
2022-12-28T14:12:54.987Z,6.54
2022-12-28T14:15:22.407Z,6.57
2022-12-28T14:17:51.619Z,6.49
2022-12-28T14:20:18.925Z,6.54
2022-12-28T14:22:46.030Z,6.37
2022-12-28T14:25:14.498Z,6.28
2022-12-28T14:28:08.089Z,6.31
2022-12-28T14:30:41.401Z,6.22
2022-12-28T14:33:24.737Z,6.17
2022-12-28T14:35:59.393Z,6.19
2022-12-28T14:38:33.903Z,6.10
2022-12-28T14:41:02.523Z,6.00
2022-12-28T14:43:32.596Z,6.04
2022-12-28T14:46:31.908Z,5.92
2022-12-28T14:49:00.368Z,5.92
2022-12-28T14:51:31.820Z,5.85
2022-12-28T14:54:19.502Z,5.84
2022-12-28T14:56:53.687Z,5.78
2022-12-28T14:59:29.540Z,5.82
2022-12-28T15:01:56.769Z,5.71
2022-12-28T15:04:33.990Z,5.70
2022-12-28T15:07:00.848Z,5.71
2022-12-28T15:09:27.688Z,5.64
2022-12-28T15:12:14.653Z,5.60
2022-12-28T15:14:42.206Z,5.73
2022-12-28T15:28:19.060Z,4.96
2022-12-28T15:30:46.099Z,5.10
2022-12-28T15:33:13.133Z,5.14
2022-12-28T15:35:40.000Z,5.24
2022-12-28T15:38:06.921Z,5.33
2022-12-28T15:40:33.840Z,5.37
2022-12-28T15:43:00.719Z,5.40
2022-12-28T15:45:27.597Z,5.41
2022-12-28T15:47:55.124Z,5.42
2022-12-28T15:50:22.048Z,5.46
2022-12-28T15:52:49.147Z,5.48
2022-12-28T15:55:16.189Z,5.49
2022-12-28T15:57:44.636Z,5.38
2022-12-28T16:00:18.778Z,5.35
2022-12-28T16:02:46.747Z,5.29
2022-12-28T16:05:14.397Z,5.18
2022-12-28T16:07:41.274Z,5.10
2022-12-28T16:10:08.552Z,5.07
2022-12-28T16:12:35.447Z,5.04
2022-12-28T16:15:02.381Z,4.98
2022-12-28T16:17:29.246Z,4.86
2022-12-28T16:19:56.161Z,4.87
2022-12-28T16:22:23.361Z,4.90
2022-12-28T16:24:50.260Z,4.90
2022-12-28T16:27:17.453Z,4.86
2022-12-28T16:29:46.199Z,4.80
2022-12-28T16:32:13.053Z,4.76
2022-12-28T16:34:40.201Z,4.86
2022-12-28T16:37:07.399Z,4.85
2022-12-28T16:39:34.846Z,4.93
2022-12-28T16:42:01.815Z,4.87
2022-12-28T16:44:29.510Z,4.90
2022-12-28T16:47:00.045Z,4.81
2022-12-28T16:49:27.994Z,4.91
2022-12-28T16:51:54.931Z,4.79
2022-12-28T16:54:23.792Z,4.79
2022-12-28T16:56:52.121Z,4.76
2022-12-28T16:59:29.448Z,4.68
2022-12-28T17:01:57.998Z,4.80
2022-12-28T17:04:24.980Z,4.71
2022-12-28T17:06:52.137Z,4.78
2022-12-28T17:09:19.718Z,4.74
2022-12-28T17:11:48.365Z,4.83
2022-12-28T17:14:29.227Z,4.81
2022-12-28T17:17:02.642Z,4.80
2022-12-28T17:19:29.616Z,4.89
2022-12-28T17:21:56.469Z,4.87
2022-12-28T17:24:23.323Z,4.81
2022-12-28T17:26:50.235Z,4.83
2022-12-28T17:29:17.322Z,4.94
2022-12-28T17:31:44.336Z,5.03
2022-12-28T17:34:11.395Z,5.08
2022-12-28T17:36:39.070Z,5.13
2022-12-28T17:39:06.012Z,5.17
2022-12-28T17:41:33.130Z,5.24
2022-12-28T17:44:00.743Z,5.16
2022-12-28T17:46:29.535Z,5.27
2022-12-28T17:48:58.406Z,5.24
2022-12-28T17:51:26.700Z,5.26
2022-12-28T17:53:56.598Z,5.23
2022-12-28T17:56:23.621Z,5.30
2022-12-28T17:58:55.766Z,5.32
2022-12-28T18:01:23.012Z,5.36
2022-12-28T18:03:50.166Z,5.39
2022-12-28T18:06:17.221Z,5.34
2022-12-28T18:08:44.770Z,5.37
2022-12-28T18:11:11.686Z,5.38
2022-12-28T18:13:39.803Z,5.38
2022-12-28T18:16:08.772Z,5.37
2022-12-28T18:18:35.676Z,5.41
2022-12-28T18:21:07.776Z,5.45
2022-12-28T18:23:35.428Z,5.35
2022-12-28T18:26:02.256Z,5.32
2022-12-28T18:28:29.630Z,5.37
2022-12-28T18:31:01.489Z,5.39
2022-12-28T18:33:29.834Z,5.42
2022-12-28T18:35:57.078Z,5.35
2022-12-28T18:38:24.147Z,5.43
2022-12-28T18:40:52.541Z,5.43
2022-12-28T18:43:20.142Z,5.43
2022-12-28T18:45:55.287Z,5.51
2022-12-28T18:48:26.691Z,5.55
2022-12-28T18:50:59.816Z,5.52
2022-12-28T18:53:28.258Z,5.53
2022-12-28T18:56:00.466Z,5.53
2022-12-28T18:58:32.742Z,5.56
2022-12-28T19:01:09.334Z,5.53
2022-12-28T19:03:43.575Z,5.53
2022-12-28T19:06:11.028Z,5.58
2022-12-28T19:08:39.621Z,5.53
2022-12-28T19:11:08.296Z,5.56
2022-12-28T19:13:41.292Z,5.58
2022-12-28T19:16:12.232Z,5.65
2022-12-28T19:18:39.115Z,5.57
2022-12-28T19:21:17.712Z,5.55
2022-12-28T19:23:45.298Z,5.52
2022-12-28T19:26:12.480Z,5.59
2022-12-28T19:28:39.346Z,5.47
2022-12-28T19:31:06.201Z,5.43
2022-12-28T19:33:33.105Z,5.27
2022-12-28T19:36:00.153Z,5.28
2022-12-28T19:38:27.644Z,5.18
2022-12-28T19:40:55.939Z,5.08
2022-12-28T19:43:23.490Z,5.19
2022-12-28T19:45:50.260Z,4.96
2022-12-28T19:48:17.105Z,5.03
2022-12-28T19:50:43.891Z,4.92
2022-12-28T19:53:10.698Z,4.93
2022-12-28T19:55:37.614Z,4.90
2022-12-28T19:58:04.467Z,4.85
2022-12-28T20:00:31.275Z,4.90
2022-12-28T20:02:58.338Z,4.79
2022-12-28T20:05:25.991Z,4.87
2022-12-28T20:07:52.930Z,4.85
2022-12-28T20:10:19.809Z,4.78
2022-12-28T20:12:46.673Z,4.55
2022-12-28T20:15:13.474Z,4.58
2022-12-28T20:17:42.194Z,4.57
2022-12-28T20:20:09.226Z,4.56
2022-12-28T20:22:40.340Z,4.47
2022-12-28T20:25:07.698Z,4.44
2022-12-28T20:27:34.769Z,4.47
2022-12-28T20:30:01.724Z,4.42
2022-12-28T20:32:28.601Z,4.43
2022-12-28T20:34:55.668Z,4.27
2022-12-28T20:37:22.491Z,4.13
2022-12-28T20:39:49.332Z,4.01
2022-12-28T20:42:34.689Z,4.00
2022-12-28T20:45:01.670Z,3.82
2022-12-28T20:47:28.553Z,3.95
2022-12-28T20:49:55.540Z,4.01
2022-12-28T20:52:22.595Z,3.95
2022-12-28T20:54:49.786Z,3.78
2022-12-28T20:57:16.691Z,3.81
2022-12-28T20:59:43.644Z,3.86
2022-12-28T21:02:10.578Z,3.77
2022-12-28T21:04:37.594Z,3.68
2022-12-28T21:07:05.152Z,3.64
2022-12-28T21:09:32.216Z,3.55
2022-12-28T21:11:59.086Z,3.54
2022-12-28T21:14:25.964Z,3.52
2022-12-28T21:16:52.905Z,3.46
2022-12-28T21:19:19.975Z,3.36
2022-12-28T21:21:48.534Z,3.42
2022-12-28T21:24:15.439Z,3.39
2022-12-28T21:26:42.313Z,3.31
2022-12-28T21:29:09.274Z,3.22
2022-12-28T21:31:36.451Z,3.19
2022-12-28T21:34:03.602Z,3.20
2022-12-28T21:36:30.614Z,3.21
2022-12-28T21:38:57.568Z,3.19
2022-12-28T21:41:43.196Z,3.15
2022-12-28T21:44:13.511Z,3.12
2022-12-28T21:46:41.080Z,3.13
2022-12-28T21:49:08.113Z,3.15
2022-12-28T21:51:35.641Z,3.14
2022-12-28T21:54:15.856Z,3.13
2022-12-28T21:56:45.008Z,3.10
2022-12-28T21:59:14.869Z,3.10
2022-12-28T22:02:17.656Z,3.13
2022-12-28T22:05:19.632Z,3.20
2022-12-28T22:07:46.753Z,3.16
2022-12-28T22:10:32.793Z,3.10
2022-12-28T22:13:00.006Z,3.11
2022-12-28T22:15:45.667Z,3.15
2022-12-28T22:21:07.681Z,3.12
2022-12-28T22:23:35.219Z,3.10
2022-12-28T22:26:02.705Z,3.17
2022-12-28T22:28:29.590Z,3.04
2022-12-28T22:31:03.477Z,3.02
2022-12-28T22:33:30.364Z,3.02
2022-12-28T22:35:57.336Z,3.01
2022-12-28T22:38:24.144Z,3.10
2022-12-28T22:41:00.266Z,3.09
2022-12-28T22:43:27.123Z,3.06
2022-12-28T22:46:05.510Z,3.10
2022-12-28T22:48:32.630Z,3.08
2022-12-28T22:51:07.471Z,3.06
2022-12-28T22:53:36.541Z,3.11
2022-12-28T22:56:06.434Z,2.99
2022-12-28T22:58:34.369Z,2.91
2022-12-28T23:01:13.090Z,2.93
2022-12-28T23:03:41.543Z,3.06
2022-12-28T23:06:10.196Z,3.13
2022-12-28T23:08:37.232Z,3.10
2022-12-28T23:11:27.089Z,3.07
2022-12-28T23:13:54.014Z,3.14
2022-12-28T23:16:20.987Z,3.27
2022-12-28T23:19:06.596Z,3.19
2022-12-28T23:21:51.950Z,3.21
2022-12-28T23:24:37.477Z,3.17
2022-12-28T23:27:21.009Z,3.21
2022-12-28T23:29:48.095Z,3.18
2022-12-28T23:32:15.034Z,3.23
2022-12-28T23:34:41.923Z,3.17
2022-12-28T23:37:08.770Z,3.15
2022-12-28T23:39:35.791Z,3.12
2022-12-28T23:42:02.647Z,3.15
2022-12-28T23:44:29.701Z,3.11
2022-12-28T23:46:59.248Z,3.04
2022-12-28T23:49:29.488Z,2.96
2022-12-28T23:51:56.497Z,3.04
2022-12-28T23:54:23.423Z,3.01
2022-12-28T23:56:50.246Z,3.07
2022-12-28T23:59:17.179Z,3.07
